View Mont, North Carolina
Current Conditions -  °F | °C
As of 1:53 PM on Friday 21 Nov 2014 (Local Time) from KHKY Reporting Station
Clear Clear  
Wind Chill: 53°   Ceiling: Unl
Heat Index: 53°   Visibility: 10mi
Dew Point:   Wind: 5mph
Humidity: 15%   Direction: NA
Pressure: 30.37"   Gusts: NA
Location:  35.7628°N, 81.3219°W
Report Text: KHKY 211853Z AUTO VRB04KT 10SM CLR 12/M14 A3037 RMK AO2 SLP275 T01171144
Loading
Personal Weather Stations






























Interactive Weather Map New forecast layout! Learn more

10-Day Weather Forecast

Advertisements
Track Severe Weather on mobile